createdAt,value
2023-08-24T00:00:13.154Z,1020.71
2023-08-24T00:01:13.363Z,1020.71
2023-08-24T00:02:13.275Z,1020.72
2023-08-24T00:03:13.405Z,1020.70
2023-08-24T00:04:13.766Z,1020.69
2023-08-24T00:05:13.683Z,1020.68
2023-08-24T00:06:13.636Z,1020.70
2023-08-24T00:07:13.830Z,1020.69
2023-08-24T00:08:13.797Z,1020.69
2023-08-24T00:09:13.741Z,1020.67
2023-08-24T00:10:13.841Z,1020.69
2023-08-24T00:11:13.735Z,1020.69
2023-08-24T00:12:13.487Z,1020.66
2023-08-24T00:13:13.701Z,1020.65
2023-08-24T00:14:13.502Z,1020.67
2023-08-24T00:15:13.707Z,1020.67
2023-08-24T00:16:14.010Z,1020.70
2023-08-24T00:17:13.105Z,1020.65
2023-08-24T00:18:13.224Z,1020.65
2023-08-24T00:19:13.356Z,1020.65
2023-08-24T00:20:13.213Z,1020.63
2023-08-24T00:21:18.368Z,1020.61
2023-08-24T00:22:13.197Z,1020.58
2023-08-24T00:23:13.111Z,1020.55
2023-08-24T00:24:17.966Z,1020.54
2023-08-24T00:25:28.090Z,1020.54
2023-08-24T00:26:13.225Z,1020.58
2023-08-24T00:27:13.128Z,1020.52
2023-08-24T00:28:13.092Z,1020.52
2023-08-24T00:29:13.037Z,1020.49
2023-08-24T00:30:13.165Z,1020.47
2023-08-24T00:31:13.352Z,1020.47
2023-08-24T00:32:13.239Z,1020.48
2023-08-24T00:33:13.164Z,1020.50
2023-08-24T00:34:13.094Z,1020.46
2023-08-24T00:35:12.950Z,1020.47
2023-08-24T00:36:13.048Z,1020.48
2023-08-24T00:37:13.156Z,1020.46
2023-08-24T00:38:13.044Z,1020.46
2023-08-24T00:39:12.820Z,1020.48
2023-08-24T00:40:13.625Z,1020.50
2023-08-24T00:41:13.536Z,1020.49
2023-08-24T00:42:13.634Z,1020.50
2023-08-24T00:43:14.155Z,1020.46
2023-08-24T00:44:13.157Z,1020.46
2023-08-24T00:45:13.204Z,1020.45
2023-08-24T00:46:13.134Z,1020.45
2023-08-24T00:47:13.399Z,1020.44
2023-08-24T00:48:13.490Z,1020.39
2023-08-24T00:49:13.413Z,1020.43
2023-08-24T00:50:13.646Z,1020.40
2023-08-24T00:51:13.683Z,1020.41
2023-08-24T00:52:13.584Z,1020.42
2023-08-24T00:53:13.621Z,1020.43
2023-08-24T00:54:13.714Z,1020.41
2023-08-24T00:55:13.671Z,1020.38
2023-08-24T00:56:13.704Z,1020.38
2023-08-24T00:57:13.474Z,1020.37
2023-08-24T00:58:13.576Z,1020.37
2023-08-24T00:59:15.046Z,1020.35
2023-08-24T01:00:12.969Z,1020.35
2023-08-24T01:01:12.821Z,1020.36
2023-08-24T01:02:13.685Z,1020.29
2023-08-24T01:03:13.616Z,1020.29
2023-08-24T01:04:13.854Z,1020.27
2023-08-24T01:05:14.021Z,1020.27
2023-08-24T01:06:12.976Z,1020.27
2023-08-24T01:07:12.917Z,1020.28
2023-08-24T01:08:12.558Z,1020.32
2023-08-24T01:09:13.797Z,1020.31
2023-08-24T01:10:13.829Z,1020.32
2023-08-24T01:11:14.057Z,1020.30
2023-08-24T01:12:12.787Z,1020.29
2023-08-24T01:13:13.795Z,1020.28
2023-08-24T01:14:13.634Z,1020.32
2023-08-24T01:15:13.617Z,1020.31
2023-08-24T01:16:13.528Z,1020.30
2023-08-24T01:17:13.348Z,1020.31
2023-08-24T01:18:13.083Z,1020.29
2023-08-24T01:19:13.087Z,1020.31
2023-08-24T01:20:13.100Z,1020.29
2023-08-24T01:21:13.094Z,1020.31
2023-08-24T01:22:12.931Z,1020.30
2023-08-24T01:23:18.080Z,1020.28
2023-08-24T01:24:12.982Z,1020.27
2023-08-24T01:25:13.043Z,1020.31
2023-08-24T01:27:13.380Z,1020.31
2023-08-24T01:28:18.461Z,1020.30
2023-08-24T01:29:13.610Z,1020.31
2023-08-24T01:30:13.624Z,1020.30
2023-08-24T01:31:13.564Z,1020.29
2023-08-24T01:33:13.447Z,1020.24
2023-08-24T01:34:18.526Z,1020.21
2023-08-24T01:35:13.830Z,1020.17
2023-08-24T01:36:13.982Z,1020.18
2023-08-24T01:37:13.013Z,1020.16
2023-08-24T01:38:13.018Z,1020.11
2023-08-24T01:40:13.535Z,1020.10
2023-08-24T01:41:13.374Z,1020.07
2023-08-24T01:42:13.201Z,1020.05
2023-08-24T01:43:13.206Z,1020.08
2023-08-24T01:44:13.376Z,1020.06
2023-08-24T01:45:13.505Z,1020.08
2023-08-24T01:46:13.602Z,1020.10
2023-08-24T01:47:14.740Z,1020.14
2023-08-24T01:48:13.925Z,1020.11
2023-08-24T01:49:12.862Z,1020.12
2023-08-24T01:50:13.835Z,1020.11
2023-08-24T01:51:13.736Z,1020.10
2023-08-24T01:52:13.538Z,1020.15
2023-08-24T01:53:13.472Z,1020.15
2023-08-24T01:54:13.432Z,1020.13
2023-08-24T01:55:13.342Z,1020.12
2023-08-24T01:56:13.389Z,1020.10
2023-08-24T01:57:13.432Z,1020.07
2023-08-24T01:58:13.549Z,1020.05
2023-08-24T01:59:13.400Z,1020.06
2023-08-24T02:00:13.372Z,1020.07
2023-08-24T02:01:28.336Z,1020.04
2023-08-24T02:02:13.405Z,1020.07
2023-08-24T02:03:13.738Z,1020.10
2023-08-24T02:04:13.785Z,1020.10
2023-08-24T02:05:13.723Z,1020.12
2023-08-24T02:06:13.874Z,1020.11
2023-08-24T02:07:18.899Z,1020.11
2023-08-24T02:08:12.858Z,1020.15
2023-08-24T02:09:13.901Z,1020.17
2023-08-24T02:10:13.481Z,1020.14
2023-08-24T02:11:14.152Z,1020.10
2023-08-24T02:12:13.279Z,1020.09
2023-08-24T02:13:13.151Z,1020.06
2023-08-24T02:14:13.309Z,1020.01
2023-08-24T02:15:13.260Z,1020.00
2023-08-24T02:16:13.139Z,1019.94
2023-08-24T02:17:13.112Z,1019.91
2023-08-24T02:18:13.096Z,1019.85
2023-08-24T02:19:13.141Z,1019.85
2023-08-24T02:20:12.866Z,1019.83
2023-08-24T02:21:13.899Z,1019.81
2023-08-24T02:22:14.061Z,1019.85
2023-08-24T02:23:13.360Z,1019.84
2023-08-24T02:24:13.242Z,1019.87
2023-08-24T02:25:13.125Z,1019.85
2023-08-24T02:26:13.162Z,1019.87
2023-08-24T02:27:13.163Z,1019.85
2023-08-24T02:28:13.217Z,1019.86
2023-08-24T02:29:13.189Z,1019.86
2023-08-24T02:30:13.225Z,1019.83
2023-08-24T02:31:14.419Z,1019.85
2023-08-24T02:32:13.383Z,1019.87
2023-08-24T02:33:13.485Z,1019.83
2023-08-24T02:34:13.456Z,1019.85
2023-08-24T02:35:13.764Z,1019.83
2023-08-24T02:36:13.882Z,1019.85
2023-08-24T02:37:12.762Z,1019.86
2023-08-24T02:38:13.937Z,1019.92
2023-08-24T02:39:12.817Z,1019.96
2023-08-24T02:40:13.783Z,1019.99
2023-08-24T02:41:13.711Z,1019.99
2023-08-24T02:42:12.855Z,1020.00
2023-08-24T02:43:14.755Z,1020.00
2023-08-24T02:44:13.963Z,1019.98
2023-08-24T02:45:12.959Z,1019.97
2023-08-24T02:46:13.208Z,1019.93
2023-08-24T02:47:13.160Z,1019.89
2023-08-24T02:48:13.337Z,1019.90
2023-08-24T02:49:13.537Z,1019.91
2023-08-24T02:50:18.868Z,1019.90
2023-08-24T02:51:44.540Z,1019.85
2023-08-24T02:52:13.514Z,1019.82
2023-08-24T02:53:13.538Z,1019.79
2023-08-24T02:55:18.630Z,1019.76
2023-08-24T02:56:13.769Z,1019.78
2023-08-24T02:57:13.511Z,1019.79
2023-08-24T02:58:13.694Z,1019.78
2023-08-24T02:59:13.572Z,1019.81
2023-08-24T03:00:13.789Z,1019.80
2023-08-24T03:01:14.338Z,1019.81
2023-08-24T03:02:13.559Z,1019.82
2023-08-24T03:04:13.304Z,1019.86
2023-08-24T03:05:13.452Z,1019.87
2023-08-24T03:06:33.407Z,1019.88
2023-08-24T03:07:13.322Z,1019.86
2023-08-24T03:08:13.229Z,1019.86
2023-08-24T03:09:13.071Z,1019.89
2023-08-24T03:10:13.258Z,1019.84
2023-08-24T03:11:13.201Z,1019.81
2023-08-24T03:12:13.206Z,1019.84
2023-08-24T03:13:13.398Z,1019.82
2023-08-24T03:14:13.249Z,1019.80
2023-08-24T03:15:13.297Z,1019.80
2023-08-24T03:16:13.301Z,1019.80
2023-08-24T03:17:13.783Z,1019.82
2023-08-24T03:18:13.836Z,1019.86
2023-08-24T03:19:13.776Z,1019.83
2023-08-24T03:20:13.807Z,1019.84
2023-08-24T03:21:14.120Z,1019.83
2023-08-24T03:22:13.223Z,1019.88
2023-08-24T03:23:13.269Z,1019.87
2023-08-24T03:24:13.386Z,1019.87
2023-08-24T03:25:13.154Z,1019.90
2023-08-24T03:26:13.272Z,1019.93
2023-08-24T03:27:13.379Z,1019.93
2023-08-24T03:28:13.265Z,1019.90
2023-08-24T03:29:13.162Z,1019.90
2023-08-24T03:30:12.967Z,1019.83
2023-08-24T03:31:12.863Z,1019.76
2023-08-24T03:32:12.963Z,1019.71
2023-08-24T03:33:13.127Z,1019.70
2023-08-24T03:34:13.011Z,1019.73
2023-08-24T03:35:12.806Z,1019.73
2023-08-24T03:36:13.959Z,1019.72
2023-08-24T03:37:18.096Z,1019.73
2023-08-24T03:38:12.995Z,1019.75
2023-08-24T03:39:12.922Z,1019.74
2023-08-24T03:40:12.899Z,1019.75
2023-08-24T03:41:12.993Z,1019.79
2023-08-24T03:42:13.003Z,1019.80
2023-08-24T03:43:12.956Z,1019.82
2023-08-24T03:44:12.930Z,1019.79
2023-08-24T03:45:12.885Z,1019.77
2023-08-24T03:46:13.125Z,1019.75
2023-08-24T03:47:13.197Z,1019.71
2023-08-24T03:48:13.102Z,1019.74
2023-08-24T03:49:13.334Z,1019.73
2023-08-24T03:50:13.257Z,1019.73
2023-08-24T03:51:13.376Z,1019.72
2023-08-24T03:52:28.241Z,1019.70
2023-08-24T03:53:23.249Z,1019.68
2023-08-24T03:54:13.038Z,1019.66
2023-08-24T03:56:23.568Z,1019.67
2023-08-24T03:57:18.680Z,1019.72
2023-08-24T03:58:13.765Z,1019.76
2023-08-24T03:59:13.598Z,1019.81
2023-08-24T04:00:13.510Z,1019.84
2023-08-24T04:01:13.618Z,1019.85
2023-08-24T04:02:13.770Z,1019.88
2023-08-24T04:03:13.907Z,1019.86
2023-08-24T04:04:13.069Z,1019.86
2023-08-24T04:05:12.880Z,1019.90
2023-08-24T04:06:12.817Z,1019.91
2023-08-24T04:07:13.918Z,1019.94
2023-08-24T04:08:12.892Z,1019.93
2023-08-24T04:09:13.002Z,1019.95
2023-08-24T04:10:12.896Z,1020.00
2023-08-24T04:11:12.912Z,1019.99
2023-08-24T04:12:12.968Z,1020.02
2023-08-24T04:13:13.103Z,1020.01
2023-08-24T04:14:12.949Z,1020.08
2023-08-24T04:15:12.985Z,1020.09
2023-08-24T04:16:13.305Z,1020.06
2023-08-24T04:17:13.409Z,1020.05
2023-08-24T04:18:13.610Z,1020.03
2023-08-24T04:19:13.531Z,1020.00
2023-08-24T04:20:13.509Z,1019.96
2023-08-24T04:21:13.358Z,1019.95
2023-08-24T04:22:13.447Z,1019.95
2023-08-24T04:23:13.657Z,1019.89
2023-08-24T04:24:13.733Z,1019.90
2023-08-24T04:25:14.130Z,1019.83
2023-08-24T04:26:13.203Z,1019.80
2023-08-24T04:27:13.065Z,1019.78
2023-08-24T04:28:13.188Z,1019.75
2023-08-24T04:29:13.278Z,1019.74
2023-08-24T04:30:13.562Z,1019.69
2023-08-24T04:31:13.784Z,1019.68
2023-08-24T04:32:13.885Z,1019.68
2023-08-24T04:33:13.031Z,1019.63
2023-08-24T04:34:13.151Z,1019.62
2023-08-24T04:35:13.434Z,1019.62
2023-08-24T04:36:13.395Z,1019.58
2023-08-24T04:37:13.381Z,1019.60
2023-08-24T04:38:14.049Z,1019.60
2023-08-24T04:39:13.267Z,1019.61
2023-08-24T04:40:13.257Z,1019.60
2023-08-24T04:41:13.248Z,1019.64
2023-08-24T04:42:13.337Z,1019.65
2023-08-24T04:43:13.212Z,1019.68
2023-08-24T04:44:13.440Z,1019.69
2023-08-24T04:45:13.951Z,1019.72
2023-08-24T04:46:12.946Z,1019.70
2023-08-24T04:47:12.994Z,1019.71
2023-08-24T04:48:13.121Z,1019.71
2023-08-24T04:49:13.110Z,1019.73
2023-08-24T04:50:13.229Z,1019.75
2023-08-24T04:51:13.362Z,1019.74
2023-08-24T04:52:13.338Z,1019.68
2023-08-24T04:53:13.242Z,1019.66
2023-08-24T04:54:13.249Z,1019.62
2023-08-24T04:55:13.048Z,1019.63
2023-08-24T04:56:12.908Z,1019.62
2023-08-24T04:57:12.930Z,1019.57
2023-08-24T04:58:12.838Z,1019.55
2023-08-24T04:59:13.700Z,1019.57
2023-08-24T05:00:13.785Z,1019.63
2023-08-24T05:01:13.824Z,1019.66
2023-08-24T05:02:13.895Z,1019.64
2023-08-24T05:03:13.098Z,1019.64
2023-08-24T05:04:13.229Z,1019.60
2023-08-24T05:05:13.119Z,1019.54
2023-08-24T05:06:12.973Z,1019.56
2023-08-24T05:07:12.773Z,1019.49
2023-08-24T05:08:13.853Z,1019.48
2023-08-24T05:09:13.798Z,1019.47
2023-08-24T05:10:14.027Z,1019.45
2023-08-24T05:11:13.108Z,1019.42
2023-08-24T05:12:13.377Z,1019.42
2023-08-24T05:13:13.478Z,1019.36
2023-08-24T05:14:13.513Z,1019.31
2023-08-24T05:15:13.608Z,1019.25
2023-08-24T05:16:13.953Z,1019.20
2023-08-24T05:17:13.005Z,1019.19
2023-08-24T05:18:13.294Z,1019.19
2023-08-24T05:19:13.274Z,1019.19
2023-08-24T05:20:13.462Z,1019.19
2023-08-24T05:21:13.421Z,1019.22
2023-08-24T05:22:13.210Z,1019.22
2023-08-24T05:23:13.315Z,1019.22
2023-08-24T05:24:13.233Z,1019.26
2023-08-24T05:25:13.192Z,1019.24
2023-08-24T05:26:13.054Z,1019.24
2023-08-24T05:27:12.918Z,1019.24
2023-08-24T05:28:12.880Z,1019.23
2023-08-24T05:29:13.784Z,1019.20
2023-08-24T05:30:13.667Z,1019.18
2023-08-24T05:31:13.925Z,1019.12
2023-08-24T05:32:12.862Z,1019.09
2023-08-24T05:33:13.813Z,1019.06
2023-08-24T05:34:13.803Z,1019.07
2023-08-24T05:35:13.967Z,1019.07
2023-08-24T05:36:12.897Z,1019.02
2023-08-24T05:37:12.890Z,1019.02
2023-08-24T05:38:12.794Z,1018.99
2023-08-24T05:39:13.615Z,1019.00
2023-08-24T05:40:13.663Z,1018.97
2023-08-24T05:41:13.693Z,1018.98
2023-08-24T05:42:14.007Z,1018.97
2023-08-24T05:43:13.119Z,1018.96
2023-08-24T05:44:13.029Z,1018.93
2023-08-24T05:45:12.819Z,1018.88
2023-08-24T05:46:13.864Z,1018.86
2023-08-24T05:47:12.957Z,1018.81
2023-08-24T05:48:13.146Z,1018.74
2023-08-24T05:49:13.692Z,1018.70
2023-08-24T05:50:13.394Z,1018.66
2023-08-24T05:51:13.592Z,1018.64
2023-08-24T05:52:13.663Z,1018.64
2023-08-24T05:53:13.707Z,1018.61
2023-08-24T05:54:13.778Z,1018.59
2023-08-24T05:55:13.506Z,1018.55
2023-08-24T05:56:13.362Z,1018.53
2023-08-24T05:57:13.294Z,1018.46
2023-08-24T05:58:13.478Z,1018.50
2023-08-24T05:59:13.451Z,1018.47
2023-08-24T06:00:13.332Z,1018.47
2023-08-24T06:01:13.342Z,1018.41
2023-08-24T06:02:13.559Z,1018.40
2023-08-24T06:03:13.546Z,1018.43
2023-08-24T06:04:13.659Z,1018.39
2023-08-24T06:05:14.010Z,1018.37
2023-08-24T06:06:13.106Z,1018.36
2023-08-24T06:07:13.398Z,1018.34
2023-08-24T06:08:13.364Z,1018.30
2023-08-24T06:09:13.372Z,1018.34
2023-08-24T06:10:13.437Z,1018.29
2023-08-24T06:11:13.339Z,1018.32
2023-08-24T06:12:13.198Z,1018.30
2023-08-24T06:13:13.075Z,1018.35
2023-08-24T06:14:13.101Z,1018.34
2023-08-24T06:15:13.590Z,1018.32
2023-08-24T06:16:14.235Z,1018.31
2023-08-24T06:17:13.434Z,1018.32
2023-08-24T06:18:13.174Z,1018.34
2023-08-24T06:19:13.505Z,1018.34
2023-08-24T06:20:13.392Z,1018.36
2023-08-24T06:21:13.603Z,1018.34
2023-08-24T06:22:13.716Z,1018.34
2023-08-24T06:23:13.808Z,1018.32
2023-08-24T06:24:13.645Z,1018.28
2023-08-24T06:25:13.626Z,1018.22
2023-08-24T06:26:13.762Z,1018.23
2023-08-24T06:27:13.664Z,1018.23
2023-08-24T06:28:13.549Z,1018.21
2023-08-24T06:29:13.541Z,1018.17
2023-08-24T06:30:18.497Z,1018.21
2023-08-24T06:31:13.611Z,1018.21
2023-08-24T06:32:14.029Z,1018.19
2023-08-24T06:33:12.992Z,1018.21
2023-08-24T06:34:12.984Z,1018.24
2023-08-24T06:35:13.040Z,1018.26
2023-08-24T06:36:12.976Z,1018.26
2023-08-24T06:37:13.317Z,1018.22
2023-08-24T06:38:13.454Z,1018.23
2023-08-24T06:39:13.188Z,1018.26
2023-08-24T06:40:13.102Z,1018.26
2023-08-24T06:41:12.964Z,1018.22
2023-08-24T06:42:12.970Z,1018.24
2023-08-24T06:43:13.007Z,1018.25
2023-08-24T06:44:12.957Z,1018.28
2023-08-24T06:45:12.904Z,1018.26
2023-08-24T06:46:12.963Z,1018.28
2023-08-24T06:47:12.852Z,1018.28
2023-08-24T06:48:12.958Z,1018.29
2023-08-24T06:49:13.684Z,1018.30
2023-08-24T06:50:14.534Z,1018.25
2023-08-24T06:51:13.471Z,1018.24
2023-08-24T06:52:13.489Z,1018.24
2023-08-24T06:53:13.632Z,1018.22
2023-08-24T06:54:13.904Z,1018.21
2023-08-24T06:55:12.881Z,1018.24
2023-08-24T06:56:13.936Z,1018.21
2023-08-24T06:57:12.981Z,1018.21
2023-08-24T06:58:12.837Z,1018.19
2023-08-24T06:59:13.960Z,1018.17
2023-08-24T07:00:12.897Z,1018.19
2023-08-24T07:01:13.046Z,1018.16
2023-08-24T07:02:13.260Z,1018.19
2023-08-24T07:03:13.190Z,1018.18
2023-08-24T07:04:13.354Z,1018.18
2023-08-24T07:05:13.595Z,1018.18
2023-08-24T07:06:13.458Z,1018.23
2023-08-24T07:07:13.405Z,1018.20
2023-08-24T07:08:13.509Z,1018.23
2023-08-24T07:09:13.392Z,1018.22
2023-08-24T07:10:13.257Z,1018.20
2023-08-24T07:11:13.182Z,1018.18
2023-08-24T07:12:13.052Z,1018.21
2023-08-24T07:13:13.314Z,1018.19
2023-08-24T07:14:13.414Z,1018.21
2023-08-24T07:15:13.430Z,1018.20
2023-08-24T07:16:13.362Z,1018.17
2023-08-24T07:17:13.354Z,1018.17
2023-08-24T07:18:14.877Z,1018.14
2023-08-24T07:19:13.130Z,1018.15
2023-08-24T07:20:13.362Z,1018.16
2023-08-24T07:21:13.144Z,1018.14
2023-08-24T07:22:12.973Z,1018.16
2023-08-24T07:23:13.113Z,1018.16
2023-08-24T07:24:13.199Z,1018.17
2023-08-24T07:25:13.080Z,1018.17
2023-08-24T07:26:13.213Z,1018.16
2023-08-24T07:27:13.428Z,1018.14
2023-08-24T07:28:13.492Z,1018.13
2023-08-24T07:29:13.561Z,1018.13
2023-08-24T07:30:26.293Z,1018.14
2023-08-24T07:31:13.034Z,1018.14
2023-08-24T07:32:13.227Z,1018.13
2023-08-24T07:33:13.414Z,1018.12
2023-08-24T07:34:13.367Z,1018.12
2023-08-24T07:35:13.324Z,1018.16
2023-08-24T07:36:13.196Z,1018.17
2023-08-24T07:37:13.418Z,1018.14
2023-08-24T07:38:13.231Z,1018.14
2023-08-24T07:39:13.849Z,1018.14
2023-08-24T07:40:13.182Z,1018.10
2023-08-24T07:41:13.436Z,1018.11
2023-08-24T07:42:13.406Z,1018.10
2023-08-24T07:43:13.310Z,1018.10
2023-08-24T07:44:13.471Z,1018.12
2023-08-24T07:45:13.492Z,1018.13
2023-08-24T07:46:13.391Z,1018.11
2023-08-24T07:47:13.195Z,1018.14
2023-08-24T07:48:13.426Z,1018.12
2023-08-24T07:49:13.276Z,1018.09
2023-08-24T07:50:13.228Z,1018.14
2023-08-24T07:51:13.269Z,1018.08
2023-08-24T07:52:13.316Z,1018.10
2023-08-24T07:53:13.304Z,1018.06
2023-08-24T07:54:13.352Z,1018.07
2023-08-24T07:55:13.403Z,1018.09
2023-08-24T07:56:13.297Z,1018.10
2023-08-24T07:57:13.280Z,1018.05
2023-08-24T07:58:13.250Z,1018.06
2023-08-24T07:59:13.291Z,1018.03
2023-08-24T08:00:13.277Z,1018.00
2023-08-24T08:01:13.205Z,1017.96
2023-08-24T08:02:13.311Z,1017.98
2023-08-24T08:03:13.411Z,1017.99
2023-08-24T08:04:19.226Z,1017.95
2023-08-24T08:05:12.951Z,1017.97
2023-08-24T08:06:12.848Z,1017.93
2023-08-24T08:07:13.937Z,1017.90
2023-08-24T08:08:13.196Z,1017.91
2023-08-24T08:09:13.126Z,1017.88
2023-08-24T08:10:13.371Z,1017.90
2023-08-24T08:11:13.208Z,1017.87
2023-08-24T08:12:13.050Z,1017.89
2023-08-24T08:13:13.132Z,1017.89
2023-08-24T08:14:13.243Z,1017.89
2023-08-24T08:15:13.190Z,1017.90
2023-08-24T08:16:13.208Z,1017.89
2023-08-24T08:17:13.120Z,1017.90
2023-08-24T08:18:12.997Z,1017.89
2023-08-24T08:19:12.890Z,1017.90
2023-08-24T08:20:12.962Z,1017.90
2023-08-24T08:21:13.203Z,1017.91
2023-08-24T08:22:18.125Z,1017.94
2023-08-24T08:23:13.200Z,1017.98
2023-08-24T08:24:17.819Z,1017.99
2023-08-24T08:25:13.133Z,1018.05
2023-08-24T08:26:13.161Z,1018.09
2023-08-24T08:27:13.037Z,1018.08
2023-08-24T08:28:12.984Z,1018.08
2023-08-24T08:29:12.981Z,1018.10
2023-08-24T08:30:12.989Z,1018.07
2023-08-24T08:31:13.321Z,1018.06
2023-08-24T08:32:13.544Z,1018.04
2023-08-24T08:33:13.382Z,1018.00
2023-08-24T08:34:13.570Z,1018.01
2023-08-24T08:35:13.486Z,1018.03
2023-08-24T08:36:13.793Z,1017.99
2023-08-24T08:37:13.974Z,1018.02
2023-08-24T08:38:12.839Z,1017.99
2023-08-24T08:39:13.607Z,1017.96
2023-08-24T08:40:13.768Z,1017.92
2023-08-24T08:41:13.918Z,1017.90
2023-08-24T08:42:13.379Z,1017.85
2023-08-24T08:43:13.463Z,1017.77
2023-08-24T08:44:13.331Z,1017.76
2023-08-24T08:45:13.321Z,1017.72
2023-08-24T08:46:13.947Z,1017.74
2023-08-24T08:47:13.003Z,1017.74
2023-08-24T08:48:13.055Z,1017.71
2023-08-24T08:49:13.067Z,1017.73
2023-08-24T08:50:12.883Z,1017.72
2023-08-24T08:51:12.837Z,1017.71
2023-08-24T08:52:13.758Z,1017.75
2023-08-24T08:53:13.732Z,1017.69
2023-08-24T08:54:13.865Z,1017.67
2023-08-24T08:55:13.795Z,1017.66
2023-08-24T08:56:14.007Z,1017.66
2023-08-24T08:57:12.982Z,1017.65
2023-08-24T08:58:13.076Z,1017.61
2023-08-24T08:59:13.240Z,1017.58
2023-08-24T09:00:13.353Z,1017.62
2023-08-24T09:01:13.305Z,1017.62
2023-08-24T09:02:13.439Z,1017.61
2023-08-24T09:03:14.060Z,1017.64
2023-08-24T09:04:13.261Z,1017.58
2023-08-24T09:05:13.107Z,1017.59
2023-08-24T09:06:13.024Z,1017.57
2023-08-24T09:07:12.868Z,1017.54
2023-08-24T09:08:13.907Z,1017.54
2023-08-24T09:09:12.941Z,1017.54
2023-08-24T09:10:12.814Z,1017.59
2023-08-24T09:11:13.798Z,1017.57
2023-08-24T09:12:13.638Z,1017.58
2023-08-24T09:13:13.562Z,1017.57
2023-08-24T09:14:13.617Z,1017.58
2023-08-24T09:15:13.600Z,1017.55
2023-08-24T09:16:13.688Z,1017.54
2023-08-24T09:17:14.022Z,1017.48
2023-08-24T09:18:13.157Z,1017.48
2023-08-24T09:19:13.406Z,1017.45
2023-08-24T09:20:13.568Z,1017.42
2023-08-24T09:21:13.494Z,1017.39
2023-08-24T09:22:13.431Z,1017.40
2023-08-24T09:23:18.508Z,1017.39
2023-08-24T09:24:13.976Z,1017.35
2023-08-24T09:25:13.161Z,1017.32
2023-08-24T09:26:13.171Z,1017.28
2023-08-24T09:27:13.473Z,1017.13
2023-08-24T09:28:13.608Z,1017.13
2023-08-24T09:29:13.414Z,1017.05
2023-08-24T09:30:13.505Z,1017.03
2023-08-24T09:31:13.462Z,1016.99
2023-08-24T09:32:13.513Z,1016.97
2023-08-24T09:33:13.533Z,1016.96
2023-08-24T09:34:13.443Z,1016.96
2023-08-24T09:35:13.403Z,1016.98
2023-08-24T09:36:13.538Z,1016.90
2023-08-24T09:37:13.610Z,1016.87
2023-08-24T09:38:13.651Z,1016.84
2023-08-24T09:39:13.518Z,1016.86
2023-08-24T09:40:13.559Z,1016.83
2023-08-24T09:41:13.371Z,1016.79
2023-08-24T09:42:13.436Z,1016.80
2023-08-24T09:43:13.447Z,1016.78
2023-08-24T09:44:13.595Z,1016.76
2023-08-24T09:45:13.461Z,1016.73
2023-08-24T09:46:13.418Z,1016.71
2023-08-24T09:47:13.577Z,1016.64
2023-08-24T09:48:13.698Z,1016.62
2023-08-24T09:49:13.693Z,1016.55
2023-08-24T09:50:18.688Z,1016.52
2023-08-24T09:51:32.610Z,1016.45
2023-08-24T09:52:13.746Z,1016.47
2023-08-24T09:53:13.804Z,1016.49
2023-08-24T09:54:13.841Z,1016.44
2023-08-24T09:55:13.795Z,1016.46
2023-08-24T09:56:13.673Z,1016.43
2023-08-24T09:57:13.491Z,1016.40
2023-08-24T09:58:13.507Z,1016.40
2023-08-24T09:59:13.783Z,1016.40
2023-08-24T10:00:14.308Z,1016.40
2023-08-24T10:01:13.413Z,1016.39
2023-08-24T10:02:13.600Z,1016.42
2023-08-24T10:03:13.671Z,1016.44
2023-08-24T10:04:13.947Z,1016.42
2023-08-24T10:05:21.767Z,1016.41
2023-08-24T10:06:13.198Z,1016.37
2023-08-24T10:07:13.176Z,1016.34
2023-08-24T10:08:13.236Z,1016.36
2023-08-24T10:09:13.387Z,1016.34
2023-08-24T10:10:13.286Z,1016.37
2023-08-24T10:11:16.071Z,1016.42
2023-08-24T10:12:13.267Z,1016.42
2023-08-24T10:13:13.314Z,1016.51
2023-08-24T10:14:13.325Z,1016.57
2023-08-24T10:15:13.236Z,1016.62
2023-08-24T10:16:13.324Z,1016.61
2023-08-24T10:17:15.326Z,1016.69
2023-08-24T10:18:13.547Z,1016.77
2023-08-24T10:19:13.601Z,1016.82
2023-08-24T10:20:13.822Z,1016.88
2023-08-24T10:21:13.873Z,1016.94
2023-08-24T10:22:13.979Z,1016.91
2023-08-24T10:23:12.887Z,1016.98
2023-08-24T10:24:12.792Z,1017.00
2023-08-24T10:25:13.813Z,1016.95
2023-08-24T10:26:13.697Z,1016.95
2023-08-24T10:27:13.128Z,1016.93
2023-08-24T10:28:13.330Z,1016.91
2023-08-24T10:29:13.247Z,1016.89
2023-08-24T10:30:49.486Z,1016.90
2023-08-24T10:31:01.484Z,1016.92
2023-08-24T10:31:13.657Z,1016.93
2023-08-24T10:32:14.336Z,1016.98
2023-08-24T10:33:13.366Z,1016.99
2023-08-24T10:34:13.316Z,1016.99
2023-08-24T10:35:15.388Z,1016.96
2023-08-24T10:36:13.466Z,1016.98
2023-08-24T10:37:13.367Z,1016.94
2023-08-24T10:38:13.368Z,1016.92
2023-08-24T10:39:13.683Z,1016.96
2023-08-24T10:40:13.721Z,1016.95
2023-08-24T10:41:15.348Z,1016.96
2023-08-24T10:42:13.165Z,1016.96
2023-08-24T10:43:13.266Z,1016.95
2023-08-24T10:44:13.479Z,1016.94
2023-08-24T10:45:13.506Z,1016.94
2023-08-24T10:46:13.406Z,1016.93
2023-08-24T10:47:13.293Z,1016.90
2023-08-24T10:48:13.405Z,1016.92
2023-08-24T10:49:13.409Z,1016.93
2023-08-24T10:50:13.346Z,1016.90
2023-08-24T10:51:13.165Z,1016.88
2023-08-24T10:52:12.984Z,1016.87
2023-08-24T10:53:12.926Z,1016.82
2023-08-24T10:54:13.037Z,1016.83
2023-08-24T10:55:13.172Z,1016.79
2023-08-24T10:56:13.105Z,1016.75
2023-08-24T10:57:12.817Z,1016.74
2023-08-24T10:58:14.018Z,1016.73
2023-08-24T10:59:14.313Z,1016.73
2023-08-24T11:00:13.308Z,1016.76
2023-08-24T11:01:13.264Z,1016.74
2023-08-24T11:02:13.369Z,1016.75
2023-08-24T11:03:13.214Z,1016.77
2023-08-24T11:04:13.304Z,1016.70
2023-08-24T11:05:13.408Z,1016.72
2023-08-24T11:06:13.487Z,1016.70
2023-08-24T11:07:14.488Z,1016.68
2023-08-24T11:08:13.314Z,1016.66
2023-08-24T11:09:13.145Z,1016.70
2023-08-24T11:10:13.141Z,1016.69
2023-08-24T11:11:13.327Z,1016.67
2023-08-24T11:12:13.334Z,1016.70
2023-08-24T11:13:13.296Z,1016.68
2023-08-24T11:14:13.213Z,1016.61
2023-08-24T11:15:13.297Z,1016.65
2023-08-24T11:16:13.342Z,1016.63
2023-08-24T11:17:13.248Z,1016.67
2023-08-24T11:18:13.267Z,1016.65
2023-08-24T11:19:13.402Z,1016.63
2023-08-24T11:20:13.241Z,1016.64
2023-08-24T11:21:13.342Z,1016.64
2023-08-24T11:22:13.396Z,1016.65
2023-08-24T11:23:13.277Z,1016.63
2023-08-24T11:24:13.196Z,1016.68
2023-08-24T11:25:13.277Z,1016.65
2023-08-24T11:26:13.808Z,1016.69
2023-08-24T11:27:13.701Z,1016.65
2023-08-24T11:28:14.869Z,1016.63
2023-08-24T11:29:13.750Z,1016.57
2023-08-24T11:30:13.753Z,1016.57
2023-08-24T11:31:14.021Z,1016.49
2023-08-24T11:32:13.022Z,1016.50
2023-08-24T11:33:12.886Z,1016.43
2023-08-24T11:34:12.782Z,1016.41
2023-08-24T11:35:13.931Z,1016.38
2023-08-24T11:36:12.847Z,1016.32
2023-08-24T11:37:13.599Z,1016.30
2023-08-24T11:38:13.784Z,1016.31
2023-08-24T11:39:13.793Z,1016.27
2023-08-24T11:40:13.688Z,1016.18
2023-08-24T11:41:13.667Z,1016.11
2023-08-24T11:42:13.564Z,1016.08
2023-08-24T11:43:13.758Z,1016.06
2023-08-24T11:44:23.188Z,1016.05
2023-08-24T11:45:13.540Z,1016.02
2023-08-24T11:46:13.539Z,1016.00
2023-08-24T11:47:13.407Z,1016.01
2023-08-24T11:48:13.278Z,1016.00
2023-08-24T11:49:13.483Z,1016.01
2023-08-24T11:50:13.522Z,1016.05
2023-08-24T11:51:13.650Z,1016.12
2023-08-24T11:52:13.764Z,1016.11
2023-08-24T11:53:13.857Z,1016.08
2023-08-24T11:54:14.029Z,1016.09
2023-08-24T11:55:13.145Z,1016.07
2023-08-24T11:56:13.222Z,1016.01
2023-08-24T11:57:13.334Z,1016.01
2023-08-24T11:58:13.078Z,1016.00
2023-08-24T11:59:12.884Z,1016.05
2023-08-24T12:00:12.753Z,1016.05
2023-08-24T12:01:13.878Z,1016.06
2023-08-24T12:02:12.738Z,1016.07
2023-08-24T12:03:13.934Z,1016.07
2023-08-24T12:04:13.072Z,1016.02
2023-08-24T12:05:12.961Z,1016.01
2023-08-24T12:06:12.890Z,1016.04
2023-08-24T12:07:13.067Z,1016.03
2023-08-24T12:08:12.934Z,1016.01
2023-08-24T12:09:12.865Z,1016.01
2023-08-24T12:10:13.852Z,1016.08